sensor_id;sensor_type;location;lat;lon;timestamp;P1;durP1;ratioP1;P2;durP2;ratioP2
65971;SDS011;52726;48.852;9.152;2022-09-02T00:01:26;4.50;;;3.35;;
65971;SDS011;52726;48.852;9.152;2022-09-02T00:03:55;4.25;;;3.20;;
65971;SDS011;52726;48.852;9.152;2022-09-02T00:06:25;6.90;;;3.50;;
65971;SDS011;52726;48.852;9.152;2022-09-02T00:08:51;4.20;;;3.38;;
65971;SDS011;52726;48.852;9.152;2022-09-02T00:11:18;3.97;;;3.08;;
65971;SDS011;52726;48.852;9.152;2022-09-02T00:13:46;8.65;;;3.33;;
65971;SDS011;52726;48.852;9.152;2022-09-02T00:16:12;4.68;;;3.05;;
65971;SDS011;52726;48.852;9.152;2022-09-02T00:18:38;6.30;;;3.55;;
65971;SDS011;52726;48.852;9.152;2022-09-02T00:21:06;5.95;;;3.55;;
65971;SDS011;52726;48.852;9.152;2022-09-02T00:23:31;6.32;;;3.50;;
65971;SDS011;52726;48.852;9.152;2022-09-02T00:25:57;5.03;;;3.63;;
65971;SDS011;52726;48.852;9.152;2022-09-02T00:28:23;3.75;;;3.30;;
65971;SDS011;52726;48.852;9.152;2022-09-02T00:30:49;4.80;;;3.15;;
65971;SDS011;52726;48.852;9.152;2022-09-02T00:33:15;3.95;;;3.30;;
65971;SDS011;52726;48.852;9.152;2022-09-02T00:35:41;4.13;;;3.38;;
65971;SDS011;52726;48.852;9.152;2022-09-02T00:38:06;4.53;;;3.47;;
65971;SDS011;52726;48.852;9.152;2022-09-02T00:40:34;7.15;;;3.40;;
65971;SDS011;52726;48.852;9.152;2022-09-02T00:43:04;5.00;;;3.53;;
65971;SDS011;52726;48.852;9.152;2022-09-02T00:45:31;4.07;;;3.33;;
65971;SDS011;52726;48.852;9.152;2022-09-02T00:47:56;4.20;;;3.35;;
65971;SDS011;52726;48.852;9.152;2022-09-02T00:50:22;4.35;;;3.42;;
65971;SDS011;52726;48.852;9.152;2022-09-02T00:52:52;5.65;;;3.38;;
65971;SDS011;52726;48.852;9.152;2022-09-02T00:55:26;3.55;;;3.17;;
65971;SDS011;52726;48.852;9.152;2022-09-02T00:57:56;4.47;;;3.22;;
65971;SDS011;52726;48.852;9.152;2022-09-02T01:00:29;6.60;;;3.15;;
65971;SDS011;52726;48.852;9.152;2022-09-02T01:02:59;3.83;;;3.42;;
65971;SDS011;52726;48.852;9.152;2022-09-02T01:05:28;6.63;;;3.33;;
65971;SDS011;52726;48.852;9.152;2022-09-02T01:07:56;3.17;;;2.88;;
65971;SDS011;52726;48.852;9.152;2022-09-02T01:10:24;3.25;;;2.90;;
65971;SDS011;52726;48.852;9.152;2022-09-02T01:12:54;5.75;;;3.22;;
65971;SDS011;52726;48.852;9.152;2022-09-02T01:15:22;6.20;;;3.78;;
65971;SDS011;52726;48.852;9.152;2022-09-02T01:17:49;3.58;;;3.13;;
65971;SDS011;52726;48.852;9.152;2022-09-02T01:20:17;5.10;;;3.20;;
65971;SDS011;52726;48.852;9.152;2022-09-02T01:22:45;4.50;;;3.08;;
65971;SDS011;52726;48.852;9.152;2022-09-02T01:25:14;6.03;;;3.20;;
65971;SDS011;52726;48.852;9.152;2022-09-02T01:27:41;4.05;;;3.25;;
65971;SDS011;52726;48.852;9.152;2022-09-02T01:30:08;4.88;;;3.63;;
65971;SDS011;52726;48.852;9.152;2022-09-02T01:32:35;6.80;;;3.63;;
65971;SDS011;52726;48.852;9.152;2022-09-02T01:35:01;5.20;;;3.63;;
65971;SDS011;52726;48.852;9.152;2022-09-02T01:37:27;3.95;;;3.05;;
65971;SDS011;52726;48.852;9.152;2022-09-02T01:39:53;4.93;;;3.20;;
65971;SDS011;52726;48.852;9.152;2022-09-02T01:42:19;3.42;;;3.13;;
65971;SDS011;52726;48.852;9.152;2022-09-02T01:44:45;5.38;;;3.45;;
65971;SDS011;52726;48.852;9.152;2022-09-02T01:47:21;5.88;;;2.97;;
65971;SDS011;52726;48.852;9.152;2022-09-02T01:49:50;3.95;;;3.00;;
65971;SDS011;52726;48.852;9.152;2022-09-02T01:52:16;4.63;;;3.08;;
65971;SDS011;52726;48.852;9.152;2022-09-02T01:54:43;2.97;;;2.63;;
65971;SDS011;52726;48.852;9.152;2022-09-02T01:57:09;5.32;;;2.85;;
65971;SDS011;52726;48.852;9.152;2022-09-02T01:59:35;6.70;;;2.45;;
65971;SDS011;52726;48.852;9.152;2022-09-02T02:02:01;2.63;;;2.17;;
65971;SDS011;52726;48.852;9.152;2022-09-02T02:04:26;3.10;;;2.53;;
65971;SDS011;52726;48.852;9.152;2022-09-02T02:06:52;3.03;;;2.50;;
65971;SDS011;52726;48.852;9.152;2022-09-02T02:09:18;3.63;;;2.78;;
65971;SDS011;52726;48.852;9.152;2022-09-02T02:11:44;3.30;;;2.40;;
65971;SDS011;52726;48.852;9.152;2022-09-02T02:14:10;3.15;;;2.70;;
65971;SDS011;52726;48.852;9.152;2022-09-02T02:16:36;4.72;;;2.25;;
65971;SDS011;52726;48.852;9.152;2022-09-02T02:19:02;2.40;;;2.20;;
65971;SDS011;52726;48.852;9.152;2022-09-02T02:21:29;2.15;;;2.00;;
65971;SDS011;52726;48.852;9.152;2022-09-02T02:23:55;3.15;;;2.30;;
65971;SDS011;52726;48.852;9.152;2022-09-02T02:26:21;2.40;;;2.20;;
65971;SDS011;52726;48.852;9.152;2022-09-02T02:28:46;4.53;;;2.38;;
65971;SDS011;52726;48.852;9.152;2022-09-02T02:31:12;5.07;;;2.15;;
65971;SDS011;52726;48.852;9.152;2022-09-02T02:33:37;3.33;;;2.33;;
65971;SDS011;52726;48.852;9.152;2022-09-02T02:36:03;2.53;;;1.90;;
65971;SDS011;52726;48.852;9.152;2022-09-02T02:38:30;7.90;;;2.20;;
65971;SDS011;52726;48.852;9.152;2022-09-02T02:41:00;3.50;;;2.20;;
65971;SDS011;52726;48.852;9.152;2022-09-02T02:43:26;2.20;;;1.90;;
65971;SDS011;52726;48.852;9.152;2022-09-02T02:45:51;2.45;;;2.25;;
65971;SDS011;52726;48.852;9.152;2022-09-02T02:48:18;3.10;;;2.40;;
65971;SDS011;52726;48.852;9.152;2022-09-02T02:50:44;4.32;;;2.60;;
65971;SDS011;52726;48.852;9.152;2022-09-02T02:53:09;3.78;;;2.40;;
65971;SDS011;52726;48.852;9.152;2022-09-02T02:55:36;2.22;;;2.03;;
65971;SDS011;52726;48.852;9.152;2022-09-02T02:58:02;7.38;;;3.38;;
65971;SDS011;52726;48.852;9.152;2022-09-02T03:00:28;2.65;;;2.20;;
65971;SDS011;52726;48.852;9.152;2022-09-02T03:02:59;3.03;;;2.72;;
65971;SDS011;52726;48.852;9.152;2022-09-02T03:05:29;2.50;;;2.30;;
65971;SDS011;52726;48.852;9.152;2022-09-02T03:07:56;2.30;;;2.10;;
65971;SDS011;52726;48.852;9.152;2022-09-02T03:10:22;3.50;;;2.70;;
65971;SDS011;52726;48.852;9.152;2022-09-02T03:12:49;2.88;;;2.45;;
65971;SDS011;52726;48.852;9.152;2022-09-02T03:15:15;3.40;;;2.70;;
65971;SDS011;52726;48.852;9.152;2022-09-02T03:17:45;5.60;;;3.00;;
65971;SDS011;52726;48.852;9.152;2022-09-02T03:20:12;3.30;;;2.80;;
65971;SDS011;52726;48.852;9.152;2022-09-02T03:22:40;5.80;;;2.88;;
65971;SDS011;52726;48.852;9.152;2022-09-02T03:25:10;3.58;;;2.35;;
65971;SDS011;52726;48.852;9.152;2022-09-02T03:27:36;3.00;;;2.47;;
65971;SDS011;52726;48.852;9.152;2022-09-02T03:30:03;8.88;;;2.97;;
65971;SDS011;52726;48.852;9.152;2022-09-02T03:32:31;2.42;;;2.20;;
65971;SDS011;52726;48.852;9.152;2022-09-02T03:34:56;2.72;;;2.40;;
65971;SDS011;52726;48.852;9.152;2022-09-02T03:37:22;6.68;;;2.80;;
65971;SDS011;52726;48.852;9.152;2022-09-02T03:39:47;3.08;;;2.45;;
65971;SDS011;52726;48.852;9.152;2022-09-02T03:42:12;4.47;;;2.42;;
65971;SDS011;52726;48.852;9.152;2022-09-02T03:44:38;5.88;;;2.40;;
65971;SDS011;52726;48.852;9.152;2022-09-02T03:47:05;4.68;;;2.40;;
65971;SDS011;52726;48.852;9.152;2022-09-02T03:49:30;2.75;;;2.45;;
65971;SDS011;52726;48.852;9.152;2022-09-02T03:51:56;2.15;;;1.95;;
65971;SDS011;52726;48.852;9.152;2022-09-02T03:54:21;2.63;;;2.42;;
65971;SDS011;52726;48.852;9.152;2022-09-02T03:56:47;3.92;;;2.88;;
65971;SDS011;52726;48.852;9.152;2022-09-02T03:59:12;6.47;;;2.70;;
65971;SDS011;52726;48.852;9.152;2022-09-02T04:01:38;3.30;;;2.40;;
65971;SDS011;52726;48.852;9.152;2022-09-02T04:04:04;3.97;;;2.25;;
65971;SDS011;52726;48.852;9.152;2022-09-02T04:06:30;3.50;;;2.40;;
65971;SDS011;52726;48.852;9.152;2022-09-02T04:08:55;2.42;;;2.13;;
65971;SDS011;52726;48.852;9.152;2022-09-02T04:11:21;3.30;;;2.50;;
65971;SDS011;52726;48.852;9.152;2022-09-02T04:13:48;4.68;;;2.67;;
65971;SDS011;52726;48.852;9.152;2022-09-02T04:16:17;2.60;;;2.40;;
65971;SDS011;52726;48.852;9.152;2022-09-02T04:18:46;2.92;;;2.50;;
65971;SDS011;52726;48.852;9.152;2022-09-02T04:21:12;3.05;;;2.50;;
65971;SDS011;52726;48.852;9.152;2022-09-02T04:23:38;4.18;;;2.58;;
65971;SDS011;52726;48.852;9.152;2022-09-02T04:26:08;3.65;;;2.60;;
65971;SDS011;52726;48.852;9.152;2022-09-02T04:28:35;3.40;;;2.67;;
65971;SDS011;52726;48.852;9.152;2022-09-02T04:31:05;3.90;;;2.60;;
65971;SDS011;52726;48.852;9.152;2022-09-02T04:33:32;5.47;;;2.45;;
65971;SDS011;52726;48.852;9.152;2022-09-02T04:35:58;2.92;;;2.53;;
65971;SDS011;52726;48.852;9.152;2022-09-02T04:38:23;3.63;;;2.72;;
65971;SDS011;52726;48.852;9.152;2022-09-02T04:40:49;3.38;;;3.05;;
65971;SDS011;52726;48.852;9.152;2022-09-02T04:43:14;3.58;;;2.58;;
65971;SDS011;52726;48.852;9.152;2022-09-02T04:45:41;3.63;;;2.65;;
65971;SDS011;52726;48.852;9.152;2022-09-02T04:48:07;4.28;;;2.92;;
65971;SDS011;52726;48.852;9.152;2022-09-02T04:50:34;2.70;;;2.40;;
65971;SDS011;52726;48.852;9.152;2022-09-02T04:53:01;3.80;;;2.58;;
65971;SDS011;52726;48.852;9.152;2022-09-02T04:55:26;4.95;;;2.83;;
65971;SDS011;52726;48.852;9.152;2022-09-02T04:57:52;4.75;;;2.72;;
65971;SDS011;52726;48.852;9.152;2022-09-02T05:00:17;2.58;;;2.30;;
65971;SDS011;52726;48.852;9.152;2022-09-02T05:02:43;3.97;;;2.90;;
65971;SDS011;52726;48.852;9.152;2022-09-02T05:05:09;2.80;;;2.55;;
65971;SDS011;52726;48.852;9.152;2022-09-02T05:07:35;3.10;;;2.72;;
65971;SDS011;52726;48.852;9.152;2022-09-02T05:10:02;3.65;;;2.58;;
65971;SDS011;52726;48.852;9.152;2022-09-02T05:12:32;4.25;;;2.85;;
65971;SDS011;52726;48.852;9.152;2022-09-02T05:14:59;4.35;;;2.50;;
65971;SDS011;52726;48.852;9.152;2022-09-02T05:17:25;5.35;;;2.95;;
65971;SDS011;52726;48.852;9.152;2022-09-02T05:19:57;5.85;;;2.85;;
65971;SDS011;52726;48.852;9.152;2022-09-02T05:22:22;2.60;;;2.40;;
65971;SDS011;52726;48.852;9.152;2022-09-02T05:24:49;3.88;;;2.50;;
65971;SDS011;52726;48.852;9.152;2022-09-02T05:27:15;5.30;;;2.70;;
65971;SDS011;52726;48.852;9.152;2022-09-02T05:29:40;3.50;;;2.55;;
65971;SDS011;52726;48.852;9.152;2022-09-02T05:32:06;3.67;;;2.60;;
65971;SDS011;52726;48.852;9.152;2022-09-02T05:34:32;5.00;;;2.58;;
65971;SDS011;52726;48.852;9.152;2022-09-02T05:36:59;6.93;;;3.08;;
65971;SDS011;52726;48.852;9.152;2022-09-02T05:39:25;6.20;;;3.28;;
65971;SDS011;52726;48.852;9.152;2022-09-02T05:41:51;2.95;;;2.50;;
65971;SDS011;52726;48.852;9.152;2022-09-02T05:44:16;2.70;;;2.50;;
65971;SDS011;52726;48.852;9.152;2022-09-02T05:46:42;2.63;;;2.42;;
65971;SDS011;52726;48.852;9.152;2022-09-02T05:49:07;4.45;;;2.60;;
65971;SDS011;52726;48.852;9.152;2022-09-02T05:54:18;5.07;;;3.03;;
65971;SDS011;52726;48.852;9.152;2022-09-02T05:56:47;2.85;;;2.65;;
65971;SDS011;52726;48.852;9.152;2022-09-02T05:59:13;4.53;;;2.70;;
65971;SDS011;52726;48.852;9.152;2022-09-02T06:01:40;4.40;;;2.38;;
65971;SDS011;52726;48.852;9.152;2022-09-02T06:04:05;3.00;;;2.55;;
65971;SDS011;52726;48.852;9.152;2022-09-02T06:06:31;3.03;;;2.70;;
65971;SDS011;52726;48.852;9.152;2022-09-02T06:08:57;5.55;;;2.60;;
65971;SDS011;52726;48.852;9.152;2022-09-02T06:11:24;2.83;;;2.30;;
65971;SDS011;52726;48.852;9.152;2022-09-02T06:13:49;5.72;;;1.85;;
65971;SDS011;52726;48.852;9.152;2022-09-02T06:16:17;2.70;;;2.35;;
65971;SDS011;52726;48.852;9.152;2022-09-02T06:18:45;1.92;;;1.65;;
65971;SDS011;52726;48.852;9.152;2022-09-02T06:21:11;2.17;;;1.75;;
65971;SDS011;52726;48.852;9.152;2022-09-02T06:23:38;2.97;;;2.22;;
65971;SDS011;52726;48.852;9.152;2022-09-02T06:26:04;3.03;;;1.77;;
65971;SDS011;52726;48.852;9.152;2022-09-02T06:28:31;2.38;;;2.10;;
65971;SDS011;52726;48.852;9.152;2022-09-02T06:30:57;6.57;;;2.28;;
65971;SDS011;52726;48.852;9.152;2022-09-02T06:33:22;2.17;;;1.98;;
65971;SDS011;52726;48.852;9.152;2022-09-02T06:35:48;4.50;;;2.20;;
65971;SDS011;52726;48.852;9.152;2022-09-02T06:38:14;3.85;;;2.17;;
65971;SDS011;52726;48.852;9.152;2022-09-02T06:40:47;5.43;;;2.50;;
65971;SDS011;52726;48.852;9.152;2022-09-02T06:43:17;3.55;;;2.08;;
65971;SDS011;52726;48.852;9.152;2022-09-02T06:45:43;6.25;;;2.10;;
65971;SDS011;52726;48.852;9.152;2022-09-02T06:48:08;3.75;;;1.88;;
65971;SDS011;52726;48.852;9.152;2022-09-02T06:50:40;3.22;;;2.20;;
65971;SDS011;52726;48.852;9.152;2022-09-02T06:53:07;6.60;;;2.45;;
65971;SDS011;52726;48.852;9.152;2022-09-02T06:55:39;3.03;;;1.95;;
65971;SDS011;52726;48.852;9.152;2022-09-02T06:58:07;4.75;;;1.92;;
65971;SDS011;52726;48.852;9.152;2022-09-02T07:00:33;1.88;;;1.65;;
65971;SDS011;52726;48.852;9.152;2022-09-02T07:03:00;2.47;;;2.05;;
65971;SDS011;52726;48.852;9.152;2022-09-02T07:05:44;2.42;;;2.00;;
65971;SDS011;52726;48.852;9.152;2022-09-02T07:08:09;3.42;;;2.00;;
65971;SDS011;52726;48.852;9.152;2022-09-02T07:10:38;2.35;;;1.90;;
65971;SDS011;52726;48.852;9.152;2022-09-02T07:13:05;2.35;;;1.83;;
65971;SDS011;52726;48.852;9.152;2022-09-02T07:15:31;3.40;;;1.80;;
65971;SDS011;52726;48.852;9.152;2022-09-02T07:17:58;3.38;;;1.70;;
65971;SDS011;52726;48.852;9.152;2022-09-02T07:20:24;3.63;;;1.80;;
65971;SDS011;52726;48.852;9.152;2022-09-02T07:22:50;2.83;;;1.77;;
65971;SDS011;52726;48.852;9.152;2022-09-02T07:25:16;2.45;;;1.80;;
65971;SDS011;52726;48.852;9.152;2022-09-02T07:27:42;2.30;;;1.52;;
65971;SDS011;52726;48.852;9.152;2022-09-02T07:30:08;1.95;;;1.73;;
65971;SDS011;52726;48.852;9.152;2022-09-02T07:32:35;2.53;;;1.90;;
65971;SDS011;52726;48.852;9.152;2022-09-02T07:35:03;4.05;;;1.90;;
65971;SDS011;52726;48.852;9.152;2022-09-02T07:37:30;2.25;;;1.60;;
65971;SDS011;52726;48.852;9.152;2022-09-02T07:39:56;2.97;;;1.63;;
65971;SDS011;52726;48.852;9.152;2022-09-02T07:42:22;1.60;;;1.45;;
65971;SDS011;52726;48.852;9.152;2022-09-02T07:44:48;2.05;;;1.50;;
65971;SDS011;52726;48.852;9.152;2022-09-02T07:47:14;2.58;;;1.52;;
65971;SDS011;52726;48.852;9.152;2022-09-02T07:49:39;2.15;;;1.70;;
65971;SDS011;52726;48.852;9.152;2022-09-02T07:52:04;2.72;;;2.00;;
65971;SDS011;52726;48.852;9.152;2022-09-02T07:54:30;3.22;;;1.42;;
65971;SDS011;52726;48.852;9.152;2022-09-02T07:56:56;3.30;;;1.63;;
65971;SDS011;52726;48.852;9.152;2022-09-02T07:59:22;4.15;;;2.00;;
65971;SDS011;52726;48.852;9.152;2022-09-02T08:01:48;5.40;;;1.50;;
65971;SDS011;52726;48.852;9.152;2022-09-02T08:04:16;2.42;;;1.40;;
65971;SDS011;52726;48.852;9.152;2022-09-02T08:06:43;1.70;;;1.60;;
65971;SDS011;52726;48.852;9.152;2022-09-02T08:09:08;2.63;;;1.50;;
65971;SDS011;52726;48.852;9.152;2022-09-02T08:11:35;2.08;;;1.45;;
65971;SDS011;52726;48.852;9.152;2022-09-02T08:14:06;1.27;;;1.15;;
65971;SDS011;52726;48.852;9.152;2022-09-02T08:16:33;1.90;;;1.20;;
65971;SDS011;52726;48.852;9.152;2022-09-02T08:18:58;3.22;;;1.40;;
65971;SDS011;52726;48.852;9.152;2022-09-02T08:21:24;3.33;;;1.45;;
65971;SDS011;52726;48.852;9.152;2022-09-02T08:23:49;2.30;;;1.30;;
65971;SDS011;52726;48.852;9.152;2022-09-02T08:26:15;2.67;;;1.45;;
65971;SDS011;52726;48.852;9.152;2022-09-02T08:28:42;2.55;;;1.35;;
65971;SDS011;52726;48.852;9.152;2022-09-02T08:31:07;1.20;;;1.10;;
65971;SDS011;52726;48.852;9.152;2022-09-02T08:33:33;3.05;;;1.30;;
65971;SDS011;52726;48.852;9.152;2022-09-02T08:36:03;1.42;;;1.33;;
65971;SDS011;52726;48.852;9.152;2022-09-02T08:38:30;2.03;;;1.40;;
65971;SDS011;52726;48.852;9.152;2022-09-02T08:40:55;2.22;;;1.42;;
65971;SDS011;52726;48.852;9.152;2022-09-02T08:45:46;1.67;;;1.38;;
65971;SDS011;52726;48.852;9.152;2022-09-02T08:48:30;2.20;;;1.65;;
65971;SDS011;52726;48.852;9.152;2022-09-02T08:51:33;5.10;;;1.27;;
65971;SDS011;52726;48.852;9.152;2022-09-02T08:54:03;1.92;;;1.35;;
65971;SDS011;52726;48.852;9.152;2022-09-02T08:56:31;1.80;;;1.20;;
65971;SDS011;52726;48.852;9.152;2022-09-02T08:58:57;3.70;;;1.40;;
65971;SDS011;52726;48.852;9.152;2022-09-02T09:17:36;1.63;;;1.23;;
65971;SDS011;52726;48.852;9.152;2022-09-02T09:20:28;3.15;;;1.50;;
65971;SDS011;52726;48.852;9.152;2022-09-02T09:22:59;2.67;;;1.27;;
65971;SDS011;52726;48.852;9.152;2022-09-02T09:25:26;1.15;;;1.00;;
65971;SDS011;52726;48.852;9.152;2022-09-02T09:27:56;2.60;;;1.20;;
65971;SDS011;52726;48.852;9.152;2022-09-02T09:30:22;1.08;;;0.98;;
65971;SDS011;52726;48.852;9.152;2022-09-02T09:32:51;1.98;;;0.93;;
65971;SDS011;52726;48.852;9.152;2022-09-02T09:35:21;0.95;;;0.95;;
65971;SDS011;52726;48.852;9.152;2022-09-02T09:37:48;3.17;;;1.20;;
65971;SDS011;52726;48.852;9.152;2022-09-02T09:40:20;1.38;;;1.17;;
65971;SDS011;52726;48.852;9.152;2022-09-02T09:42:46;2.17;;;1.20;;
65971;SDS011;52726;48.852;9.152;2022-09-02T09:45:54;3.75;;;1.02;;
65971;SDS011;52726;48.852;9.152;2022-09-02T09:56:00;1.75;;;0.95;;
65971;SDS011;52726;48.852;9.152;2022-09-02T10:01:24;3.72;;;0.80;;
65971;SDS011;52726;48.852;9.152;2022-09-02T10:09:00;1.00;;;0.95;;
65971;SDS011;52726;48.852;9.152;2022-09-02T10:11:30;2.80;;;1.23;;
65971;SDS011;52726;48.852;9.152;2022-09-02T10:14:09;1.20;;;0.90;;
65971;SDS011;52726;48.852;9.152;2022-09-02T10:19:25;3.30;;;1.10;;
65971;SDS011;52726;48.852;9.152;2022-09-02T10:27:30;2.90;;;0.95;;
65971;SDS011;52726;48.852;9.152;2022-09-02T10:30:06;1.10;;;1.00;;
65971;SDS011;52726;48.852;9.152;2022-09-02T10:35:43;2.60;;;1.10;;
65971;SDS011;52726;48.852;9.152;2022-09-02T10:40:42;1.00;;;0.90;;
65971;SDS011;52726;48.852;9.152;2022-09-02T10:46:01;1.05;;;0.75;;
65971;SDS011;52726;48.852;9.152;2022-09-02T10:54:10;1.50;;;0.95;;
65971;SDS011;52726;48.852;9.152;2022-09-02T10:56:54;2.33;;;0.90;;
65971;SDS011;52726;48.852;9.152;2022-09-02T10:59:34;0.70;;;0.70;;
65971;SDS011;52726;48.852;9.152;2022-09-02T11:02:20;1.23;;;1.10;;
65971;SDS011;52726;48.852;9.152;2022-09-02T11:05:53;1.50;;;1.00;;
65971;SDS011;52726;48.852;9.152;2022-09-02T11:08:11;5.00;;;0.90;;
65971;SDS011;52726;48.852;9.152;2022-09-02T11:10:59;8.00;;;1.20;;
65971;SDS011;52726;48.852;9.152;2022-09-02T11:13:45;1.92;;;0.55;;
65971;SDS011;52726;48.852;9.152;2022-09-02T11:16:36;1.52;;;1.10;;
65971;SDS011;52726;48.852;9.152;2022-09-02T11:22:13;4.45;;;1.05;;
65971;SDS011;52726;48.852;9.152;2022-09-02T11:27:45;3.58;;;0.90;;
65971;SDS011;52726;48.852;9.152;2022-09-02T11:30:20;0.90;;;0.90;;
65971;SDS011;52726;48.852;9.152;2022-09-02T11:38:16;0.77;;;0.77;;
65971;SDS011;52726;48.852;9.152;2022-09-02T11:43:32;1.33;;;0.75;;
65971;SDS011;52726;48.852;9.152;2022-09-02T11:53:41;2.53;;;1.10;;
65971;SDS011;52726;48.852;9.152;2022-09-02T11:56:15;0.88;;;0.80;;
65971;SDS011;52726;48.852;9.152;2022-09-02T11:58:44;1.38;;;0.68;;
65971;SDS011;52726;48.852;9.152;2022-09-02T12:09:49;0.80;;;0.80;;
65971;SDS011;52726;48.852;9.152;2022-09-02T12:15:23;1.50;;;0.73;;
65971;SDS011;52726;48.852;9.152;2022-09-02T12:23:07;2.97;;;0.60;;
65971;SDS011;52726;48.852;9.152;2022-09-02T12:25:36;0.80;;;0.80;;
65971;SDS011;52726;48.852;9.152;2022-09-02T12:33:29;1.58;;;1.02;;
65971;SDS011;52726;48.852;9.152;2022-09-02T12:36:03;1.92;;;0.77;;
65971;SDS011;52726;48.852;9.152;2022-09-02T12:38:33;1.73;;;0.93;;
65971;SDS011;52726;48.852;9.152;2022-09-02T12:43:45;1.42;;;0.90;;
65971;SDS011;52726;48.852;9.152;2022-09-02T12:51:56;2.30;;;1.00;;
65971;SDS011;52726;48.852;9.152;2022-09-02T12:54:31;1.38;;;0.90;;
65971;SDS011;52726;48.852;9.152;2022-09-02T12:57:04;1.17;;;0.85;;
65971;SDS011;52726;48.852;9.152;2022-09-02T12:59:35;2.63;;;0.93;;
65971;SDS011;52726;48.852;9.152;2022-09-02T13:18:32;1.33;;;1.00;;
65971;SDS011;52726;48.852;9.152;2022-09-02T13:32:11;1.17;;;1.00;;
65971;SDS011;52726;48.852;9.152;2022-09-02T13:34:40;1.40;;;1.20;;
65971;SDS011;52726;48.852;9.152;2022-09-02T13:37:26;1.10;;;1.02;;
65971;SDS011;52726;48.852;9.152;2022-09-02T13:39:54;1.17;;;1.08;;
65971;SDS011;52726;48.852;9.152;2022-09-02T13:42:23;3.15;;;1.08;;
65971;SDS011;52726;48.852;9.152;2022-09-02T13:45:12;1.20;;;1.10;;
65971;SDS011;52726;48.852;9.152;2022-09-02T13:47:46;4.40;;;1.00;;
65971;SDS011;52726;48.852;9.152;2022-09-02T13:50:14;11.63;;;1.27;;
65971;SDS011;52726;48.852;9.152;2022-09-02T13:52:43;2.28;;;0.85;;
65971;SDS011;52726;48.852;9.152;2022-09-02T13:55:11;5.43;;;1.00;;
65971;SDS011;52726;48.852;9.152;2022-09-02T13:57:38;2.47;;;1.10;;
65971;SDS011;52726;48.852;9.152;2022-09-02T14:02:37;0.93;;;0.88;;
65971;SDS011;52726;48.852;9.152;2022-09-02T14:05:09;2.80;;;1.13;;
65971;SDS011;52726;48.852;9.152;2022-09-02T14:07:41;1.98;;;1.10;;
65971;SDS011;52726;48.852;9.152;2022-09-02T14:10:09;2.45;;;1.00;;
65971;SDS011;52726;48.852;9.152;2022-09-02T14:12:39;1.52;;;1.00;;
65971;SDS011;52726;48.852;9.152;2022-09-02T14:15:05;1.33;;;1.23;;
65971;SDS011;52726;48.852;9.152;2022-09-02T14:17:33;1.55;;;1.13;;
65971;SDS011;52726;48.852;9.152;2022-09-02T14:20:07;1.10;;;1.00;;
65971;SDS011;52726;48.852;9.152;2022-09-02T14:22:34;2.78;;;1.20;;
65971;SDS011;52726;48.852;9.152;2022-09-02T14:25:06;2.47;;;1.05;;
65971;SDS011;52726;48.852;9.152;2022-09-02T14:27:33;1.00;;;1.00;;
65971;SDS011;52726;48.852;9.152;2022-09-02T14:29:59;3.33;;;1.10;;
65971;SDS011;52726;48.852;9.152;2022-09-02T14:32:27;1.95;;;1.13;;
65971;SDS011;52726;48.852;9.152;2022-09-02T14:40:38;1.85;;;1.13;;
65971;SDS011;52726;48.852;9.152;2022-09-02T14:43:11;1.75;;;0.93;;
65971;SDS011;52726;48.852;9.152;2022-09-02T14:45:38;5.07;;;1.85;;
65971;SDS011;52726;48.852;9.152;2022-09-02T14:48:17;1.80;;;1.10;;
65971;SDS011;52726;48.852;9.152;2022-09-02T14:50:46;1.35;;;1.25;;
65971;SDS011;52726;48.852;9.152;2022-09-02T14:53:17;3.05;;;1.20;;
65971;SDS011;52726;48.852;9.152;2022-09-02T14:55:51;3.30;;;0.90;;
65971;SDS011;52726;48.852;9.152;2022-09-02T14:58:19;0.80;;;0.80;;
65971;SDS011;52726;48.852;9.152;2022-09-02T15:00:46;1.60;;;1.20;;
65971;SDS011;52726;48.852;9.152;2022-09-02T15:03:17;1.88;;;1.00;;
65971;SDS011;52726;48.852;9.152;2022-09-02T15:05:43;1.00;;;1.00;;
65971;SDS011;52726;48.852;9.152;2022-09-02T15:08:09;1.40;;;1.30;;
65971;SDS011;52726;48.852;9.152;2022-09-02T15:10:36;2.38;;;1.08;;
65971;SDS011;52726;48.852;9.152;2022-09-02T15:13:04;3.58;;;1.35;;
65971;SDS011;52726;48.852;9.152;2022-09-02T15:15:31;4.18;;;1.17;;
65971;SDS011;52726;48.852;9.152;2022-09-02T15:17:57;1.25;;;0.95;;
65971;SDS011;52726;48.852;9.152;2022-09-02T15:20:22;2.63;;;1.00;;
65971;SDS011;52726;48.852;9.152;2022-09-02T15:22:48;2.83;;;0.93;;
65971;SDS011;52726;48.852;9.152;2022-09-02T15:25:16;2.10;;;1.13;;
65971;SDS011;52726;48.852;9.152;2022-09-02T15:27:41;0.95;;;0.93;;
65971;SDS011;52726;48.852;9.152;2022-09-02T15:30:07;2.45;;;1.10;;
65971;SDS011;52726;48.852;9.152;2022-09-02T15:32:33;3.83;;;1.35;;
65971;SDS011;52726;48.852;9.152;2022-09-02T15:34:59;1.20;;;1.10;;
65971;SDS011;52726;48.852;9.152;2022-09-02T15:37:25;2.33;;;1.35;;
65971;SDS011;52726;48.852;9.152;2022-09-02T15:39:51;1.85;;;1.35;;
65971;SDS011;52726;48.852;9.152;2022-09-02T15:42:16;1.77;;;0.93;;
65971;SDS011;52726;48.852;9.152;2022-09-02T15:44:42;1.33;;;1.23;;
65971;SDS011;52726;48.852;9.152;2022-09-02T15:47:07;2.08;;;1.00;;
65971;SDS011;52726;48.852;9.152;2022-09-02T15:49:33;1.05;;;0.88;;
65971;SDS011;52726;48.852;9.152;2022-09-02T15:51:58;1.50;;;1.25;;
65971;SDS011;52726;48.852;9.152;2022-09-02T15:54:24;2.63;;;1.08;;
65971;SDS011;52726;48.852;9.152;2022-09-02T15:56:53;1.08;;;1.08;;
65971;SDS011;52726;48.852;9.152;2022-09-02T15:59:20;3.03;;;1.30;;
65971;SDS011;52726;48.852;9.152;2022-09-02T16:01:47;1.17;;;1.00;;
65971;SDS011;52726;48.852;9.152;2022-09-02T16:04:14;2.40;;;1.30;;
65971;SDS011;52726;48.852;9.152;2022-09-02T16:06:41;1.83;;;1.00;;
65971;SDS011;52726;48.852;9.152;2022-09-02T16:09:10;0.90;;;0.90;;
65971;SDS011;52726;48.852;9.152;2022-09-02T16:11:37;0.90;;;0.88;;
65971;SDS011;52726;48.852;9.152;2022-09-02T16:14:04;0.82;;;0.82;;
65971;SDS011;52726;48.852;9.152;2022-09-02T16:16:30;1.52;;;1.00;;
65971;SDS011;52726;48.852;9.152;2022-09-02T16:18:57;2.85;;;1.25;;
65971;SDS011;52726;48.852;9.152;2022-09-02T16:21:22;2.33;;;1.02;;
65971;SDS011;52726;48.852;9.152;2022-09-02T16:23:49;1.08;;;0.98;;
65971;SDS011;52726;48.852;9.152;2022-09-02T16:28:45;2.40;;;1.45;;
65971;SDS011;52726;48.852;9.152;2022-09-02T16:31:11;4.28;;;1.10;;
65971;SDS011;52726;48.852;9.152;2022-09-02T16:33:41;4.95;;;1.83;;
65971;SDS011;52726;48.852;9.152;2022-09-02T16:36:08;5.80;;;1.17;;
65971;SDS011;52726;48.852;9.152;2022-09-02T16:38:34;1.48;;;1.10;;
65971;SDS011;52726;48.852;9.152;2022-09-02T16:41:00;1.80;;;1.30;;
65971;SDS011;52726;48.852;9.152;2022-09-02T16:43:26;1.45;;;1.08;;
65971;SDS011;52726;48.852;9.152;2022-09-02T16:45:55;1.30;;;1.20;;
65971;SDS011;52726;48.852;9.152;2022-09-02T16:48:29;1.98;;;1.20;;
65971;SDS011;52726;48.852;9.152;2022-09-02T16:51:00;2.28;;;1.20;;
65971;SDS011;52726;48.852;9.152;2022-09-02T16:53:27;1.33;;;1.00;;
65971;SDS011;52726;48.852;9.152;2022-09-02T16:55:52;1.85;;;1.30;;
65971;SDS011;52726;48.852;9.152;2022-09-02T16:58:17;2.40;;;1.10;;
65971;SDS011;52726;48.852;9.152;2022-09-02T17:00:43;1.33;;;1.23;;
65971;SDS011;52726;48.852;9.152;2022-09-02T17:03:09;2.03;;;1.00;;
65971;SDS011;52726;48.852;9.152;2022-09-02T17:05:36;2.00;;;1.10;;
65971;SDS011;52726;48.852;9.152;2022-09-02T17:08:01;2.78;;;1.00;;
65971;SDS011;52726;48.852;9.152;2022-09-02T17:10:27;1.38;;;1.08;;
65971;SDS011;52726;48.852;9.152;2022-09-02T17:12:54;5.32;;;1.08;;
65971;SDS011;52726;48.852;9.152;2022-09-02T17:15:29;5.95;;;1.17;;
65971;SDS011;52726;48.852;9.152;2022-09-02T17:18:14;5.00;;;1.50;;
65971;SDS011;52726;48.852;9.152;2022-09-02T17:20:40;2.38;;;1.25;;
65971;SDS011;52726;48.852;9.152;2022-09-02T17:23:05;2.20;;;1.13;;
65971;SDS011;52726;48.852;9.152;2022-09-02T17:25:32;2.47;;;1.42;;